sensor_id;sensor_type;location;lat;lon;timestamp;P1;durP1;ratioP1;P2;durP2;ratioP2
11514;SDS011;5814;41.936;25.556;2024-02-21T00:01:35;8.57;;;8.07;;
11514;SDS011;5814;41.936;25.556;2024-02-21T00:04:00;8.45;;;8.05;;
11514;SDS011;5814;41.936;25.556;2024-02-21T00:06:26;8.80;;;8.30;;
11514;SDS011;5814;41.936;25.556;2024-02-21T00:08:51;8.68;;;8.18;;
11514;SDS011;5814;41.936;25.556;2024-02-21T00:11:17;8.65;;;8.15;;
11514;SDS011;5814;41.936;25.556;2024-02-21T00:13:42;8.45;;;7.95;;
11514;SDS011;5814;41.936;25.556;2024-02-21T00:16:07;8.30;;;7.90;;
11514;SDS011;5814;41.936;25.556;2024-02-21T00:18:33;8.30;;;7.90;;
11514;SDS011;5814;41.936;25.556;2024-02-21T00:20:58;8.60;;;8.10;;
11514;SDS011;5814;41.936;25.556;2024-02-21T00:23:26;8.57;;;8.07;;
11514;SDS011;5814;41.936;25.556;2024-02-21T00:25:52;8.23;;;7.82;;
11514;SDS011;5814;41.936;25.556;2024-02-21T00:28:17;8.77;;;8.30;;
11514;SDS011;5814;41.936;25.556;2024-02-21T00:30:43;8.32;;;7.93;;
11514;SDS011;5814;41.936;25.556;2024-02-21T00:33:09;8.20;;;7.80;;
11514;SDS011;5814;41.936;25.556;2024-02-21T00:35:35;8.45;;;8.05;;
11514;SDS011;5814;41.936;25.556;2024-02-21T00:38:00;8.13;;;7.72;;
11514;SDS011;5814;41.936;25.556;2024-02-21T00:40:25;8.50;;;8.00;;
11514;SDS011;5814;41.936;25.556;2024-02-21T00:42:51;9.02;;;8.52;;
11514;SDS011;5814;41.936;25.556;2024-02-21T00:45:16;8.60;;;8.13;;
11514;SDS011;5814;41.936;25.556;2024-02-21T00:47:42;8.68;;;8.27;;
11514;SDS011;5814;41.936;25.556;2024-02-21T00:50:08;8.40;;;8.00;;
11514;SDS011;5814;41.936;25.556;2024-02-21T00:52:34;8.07;;;7.68;;
11514;SDS011;5814;41.936;25.556;2024-02-21T00:55:00;8.50;;;8.10;;
11514;SDS011;5814;41.936;25.556;2024-02-21T00:57:25;8.25;;;7.85;;
11514;SDS011;5814;41.936;25.556;2024-02-21T00:59:51;8.38;;;7.97;;
11514;SDS011;5814;41.936;25.556;2024-02-21T01:02:16;8.18;;;7.78;;
11514;SDS011;5814;41.936;25.556;2024-02-21T01:04:42;9.02;;;8.52;;
11514;SDS011;5814;41.936;25.556;2024-02-21T01:07:07;8.50;;;8.10;;
11514;SDS011;5814;41.936;25.556;2024-02-21T01:09:33;8.38;;;7.97;;
11514;SDS011;5814;41.936;25.556;2024-02-21T01:11:58;8.05;;;7.65;;
11514;SDS011;5814;41.936;25.556;2024-02-21T01:14:24;8.32;;;7.93;;
11514;SDS011;5814;41.936;25.556;2024-02-21T01:16:49;8.20;;;7.80;;
11514;SDS011;5814;41.936;25.556;2024-02-21T01:19:15;8.05;;;7.55;;
11514;SDS011;5814;41.936;25.556;2024-02-21T01:21:40;7.90;;;7.50;;
11514;SDS011;5814;41.936;25.556;2024-02-21T01:24:05;8.27;;;7.88;;
11514;SDS011;5814;41.936;25.556;2024-02-21T01:26:31;8.13;;;7.72;;
11514;SDS011;5814;41.936;25.556;2024-02-21T01:28:56;7.78;;;7.38;;
11514;SDS011;5814;41.936;25.556;2024-02-21T01:31:22;8.02;;;7.63;;
11514;SDS011;5814;41.936;25.556;2024-02-21T01:33:47;8.48;;;8.07;;
11514;SDS011;5814;41.936;25.556;2024-02-21T01:36:13;8.13;;;7.72;;
11514;SDS011;5814;41.936;25.556;2024-02-21T01:38:38;8.57;;;8.07;;
11514;SDS011;5814;41.936;25.556;2024-02-21T01:41:04;8.18;;;7.78;;
11514;SDS011;5814;41.936;25.556;2024-02-21T01:43:29;7.95;;;7.55;;
11514;SDS011;5814;41.936;25.556;2024-02-21T01:45:55;8.70;;;8.20;;
11514;SDS011;5814;41.936;25.556;2024-02-21T01:48:22;8.27;;;7.88;;
11514;SDS011;5814;41.936;25.556;2024-02-21T01:50:51;7.75;;;7.35;;
11514;SDS011;5814;41.936;25.556;2024-02-21T01:53:23;8.18;;;7.78;;
11514;SDS011;5814;41.936;25.556;2024-02-21T01:55:52;8.65;;;8.15;;
11514;SDS011;5814;41.936;25.556;2024-02-21T01:58:18;7.97;;;7.57;;
11514;SDS011;5814;41.936;25.556;2024-02-21T02:00:45;8.10;;;7.70;;
11514;SDS011;5814;41.936;25.556;2024-02-21T02:03:12;8.20;;;7.80;;
11514;SDS011;5814;41.936;25.556;2024-02-21T02:05:47;8.25;;;7.85;;
11514;SDS011;5814;41.936;25.556;2024-02-21T02:08:14;7.85;;;7.45;;
11514;SDS011;5814;41.936;25.556;2024-02-21T02:10:49;8.40;;;8.00;;
11514;SDS011;5814;41.936;25.556;2024-02-21T02:13:15;7.95;;;7.55;;
11514;SDS011;5814;41.936;25.556;2024-02-21T02:15:44;8.00;;;7.60;;
11514;SDS011;5814;41.936;25.556;2024-02-21T02:18:11;8.00;;;7.60;;
11514;SDS011;5814;41.936;25.556;2024-02-21T02:20:37;7.93;;;7.53;;
11514;SDS011;5814;41.936;25.556;2024-02-21T02:23:24;8.23;;;7.80;;
11514;SDS011;5814;41.936;25.556;2024-02-21T02:25:56;7.95;;;7.55;;
11514;SDS011;5814;41.936;25.556;2024-02-21T02:28:22;8.02;;;7.63;;
11514;SDS011;5814;41.936;25.556;2024-02-21T02:30:48;7.78;;;7.38;;
11514;SDS011;5814;41.936;25.556;2024-02-21T02:33:14;8.10;;;7.70;;
11514;SDS011;5814;41.936;25.556;2024-02-21T02:35:39;7.95;;;7.55;;
11514;SDS011;5814;41.936;25.556;2024-02-21T02:38:05;7.97;;;7.57;;
11514;SDS011;5814;41.936;25.556;2024-02-21T02:40:33;8.20;;;7.80;;
11514;SDS011;5814;41.936;25.556;2024-02-21T02:42:59;7.80;;;7.40;;
11514;SDS011;5814;41.936;25.556;2024-02-21T02:45:25;8.00;;;7.60;;
11514;SDS011;5814;41.936;25.556;2024-02-21T02:47:54;7.70;;;7.30;;
11514;SDS011;5814;41.936;25.556;2024-02-21T02:50:25;8.00;;;7.60;;
11514;SDS011;5814;41.936;25.556;2024-02-21T02:52:51;7.70;;;7.30;;
11514;SDS011;5814;41.936;25.556;2024-02-21T02:55:17;7.80;;;7.40;;
11514;SDS011;5814;41.936;25.556;2024-02-21T02:57:43;7.95;;;7.55;;
11514;SDS011;5814;41.936;25.556;2024-02-21T03:00:12;8.30;;;7.90;;
11514;SDS011;5814;41.936;25.556;2024-02-21T03:02:40;8.05;;;7.65;;
11514;SDS011;5814;41.936;25.556;2024-02-21T03:05:13;7.63;;;7.22;;
11514;SDS011;5814;41.936;25.556;2024-02-21T03:07:43;8.10;;;7.60;;
11514;SDS011;5814;41.936;25.556;2024-02-21T03:10:09;7.60;;;7.20;;
11514;SDS011;5814;41.936;25.556;2024-02-21T03:12:35;7.65;;;7.25;;
11514;SDS011;5814;41.936;25.556;2024-02-21T03:15:00;7.88;;;7.47;;
11514;SDS011;5814;41.936;25.556;2024-02-21T03:17:26;7.90;;;7.50;;
11514;SDS011;5814;41.936;25.556;2024-02-21T03:19:53;7.90;;;7.50;;
11514;SDS011;5814;41.936;25.556;2024-02-21T03:22:18;7.95;;;7.55;;
11514;SDS011;5814;41.936;25.556;2024-02-21T03:24:44;7.80;;;7.40;;
11514;SDS011;5814;41.936;25.556;2024-02-21T03:27:10;7.70;;;7.30;;
11514;SDS011;5814;41.936;25.556;2024-02-21T03:29:35;8.05;;;7.65;;
11514;SDS011;5814;41.936;25.556;2024-02-21T03:32:01;7.40;;;7.00;;
11514;SDS011;5814;41.936;25.556;2024-02-21T03:34:26;7.70;;;7.30;;
11514;SDS011;5814;41.936;25.556;2024-02-21T03:36:52;7.78;;;7.38;;
11514;SDS011;5814;41.936;25.556;2024-02-21T03:39:18;7.70;;;7.30;;
11514;SDS011;5814;41.936;25.556;2024-02-21T03:41:43;7.97;;;7.57;;
11514;SDS011;5814;41.936;25.556;2024-02-21T03:44:09;7.53;;;7.13;;
11514;SDS011;5814;41.936;25.556;2024-02-21T03:46:34;7.70;;;7.30;;
11514;SDS011;5814;41.936;25.556;2024-02-21T03:49:00;7.63;;;7.22;;
11514;SDS011;5814;41.936;25.556;2024-02-21T03:51:26;7.82;;;7.43;;
11514;SDS011;5814;41.936;25.556;2024-02-21T03:53:51;7.68;;;7.28;;
11514;SDS011;5814;41.936;25.556;2024-02-21T03:56:17;7.47;;;7.13;;
11514;SDS011;5814;41.936;25.556;2024-02-21T03:58:42;7.70;;;7.30;;
11514;SDS011;5814;41.936;25.556;2024-02-21T04:01:08;7.78;;;7.38;;
11514;SDS011;5814;41.936;25.556;2024-02-21T04:03:33;7.80;;;7.40;;
11514;SDS011;5814;41.936;25.556;2024-02-21T04:05:59;7.90;;;7.50;;
11514;SDS011;5814;41.936;25.556;2024-02-21T04:08:25;7.80;;;7.40;;
11514;SDS011;5814;41.936;25.556;2024-02-21T04:10:51;7.68;;;7.30;;
11514;SDS011;5814;41.936;25.556;2024-02-21T04:13:16;7.60;;;7.20;;
11514;SDS011;5814;41.936;25.556;2024-02-21T04:15:42;7.75;;;7.38;;
11514;SDS011;5814;41.936;25.556;2024-02-21T04:18:07;7.55;;;7.15;;
11514;SDS011;5814;41.936;25.556;2024-02-21T04:20:33;7.68;;;7.28;;
11514;SDS011;5814;41.936;25.556;2024-02-21T04:22:59;7.53;;;7.13;;
11514;SDS011;5814;41.936;25.556;2024-02-21T04:25:25;7.60;;;7.20;;
11514;SDS011;5814;41.936;25.556;2024-02-21T04:27:51;7.95;;;7.55;;
11514;SDS011;5814;41.936;25.556;2024-02-21T04:30:17;7.63;;;7.22;;
11514;SDS011;5814;41.936;25.556;2024-02-21T04:32:43;7.60;;;7.20;;
11514;SDS011;5814;41.936;25.556;2024-02-21T04:35:09;7.30;;;7.00;;
11514;SDS011;5814;41.936;25.556;2024-02-21T04:37:34;7.45;;;7.05;;
11514;SDS011;5814;41.936;25.556;2024-02-21T04:40:00;7.72;;;7.32;;
11514;SDS011;5814;41.936;25.556;2024-02-21T04:42:25;7.15;;;6.85;;
11514;SDS011;5814;41.936;25.556;2024-02-21T04:44:51;7.82;;;7.43;;
11514;SDS011;5814;41.936;25.556;2024-02-21T04:47:16;7.45;;;7.07;;
11514;SDS011;5814;41.936;25.556;2024-02-21T04:49:42;7.40;;;7.00;;
11514;SDS011;5814;41.936;25.556;2024-02-21T04:52:07;7.55;;;7.15;;
11514;SDS011;5814;41.936;25.556;2024-02-21T04:54:33;7.05;;;6.72;;
11514;SDS011;5814;41.936;25.556;2024-02-21T04:57:00;7.20;;;6.90;;
11514;SDS011;5814;41.936;25.556;2024-02-21T04:59:26;7.10;;;6.80;;
11514;SDS011;5814;41.936;25.556;2024-02-21T05:01:51;7.63;;;7.22;;
11514;SDS011;5814;41.936;25.556;2024-02-21T05:04:17;7.45;;;7.05;;
11514;SDS011;5814;41.936;25.556;2024-02-21T05:06:43;7.28;;;6.93;;
11514;SDS011;5814;41.936;25.556;2024-02-21T05:09:08;7.38;;;7.00;;
11514;SDS011;5814;41.936;25.556;2024-02-21T05:11:37;7.10;;;6.80;;
11514;SDS011;5814;41.936;25.556;2024-02-21T05:14:03;7.70;;;7.30;;
11514;SDS011;5814;41.936;25.556;2024-02-21T05:16:29;7.00;;;6.68;;
11514;SDS011;5814;41.936;25.556;2024-02-21T05:18:55;6.97;;;6.68;;
11514;SDS011;5814;41.936;25.556;2024-02-21T05:21:22;7.28;;;6.90;;
11514;SDS011;5814;41.936;25.556;2024-02-21T05:23:49;7.22;;;6.93;;
11514;SDS011;5814;41.936;25.556;2024-02-21T05:26:21;7.68;;;7.28;;
11514;SDS011;5814;41.936;25.556;2024-02-21T05:28:47;7.20;;;6.90;;
11514;SDS011;5814;41.936;25.556;2024-02-21T05:31:14;7.15;;;6.85;;
11514;SDS011;5814;41.936;25.556;2024-02-21T05:33:40;7.65;;;7.20;;
11514;SDS011;5814;41.936;25.556;2024-02-21T05:36:06;7.20;;;6.90;;
11514;SDS011;5814;41.936;25.556;2024-02-21T05:38:32;7.53;;;7.13;;
11514;SDS011;5814;41.936;25.556;2024-02-21T05:40:57;7.78;;;7.38;;
11514;SDS011;5814;41.936;25.556;2024-02-21T05:43:23;7.53;;;7.18;;
11514;SDS011;5814;41.936;25.556;2024-02-21T05:45:48;7.30;;;7.00;;
11514;SDS011;5814;41.936;25.556;2024-02-21T05:48:14;7.28;;;6.97;;
11514;SDS011;5814;41.936;25.556;2024-02-21T05:50:39;7.22;;;6.93;;
11514;SDS011;5814;41.936;25.556;2024-02-21T05:53:04;7.65;;;7.25;;
11514;SDS011;5814;41.936;25.556;2024-02-21T05:55:30;6.88;;;6.57;;
11514;SDS011;5814;41.936;25.556;2024-02-21T05:57:55;7.50;;;7.10;;
11514;SDS011;5814;41.936;25.556;2024-02-21T06:00:21;7.40;;;7.00;;
11514;SDS011;5814;41.936;25.556;2024-02-21T06:02:47;7.63;;;7.22;;
11514;SDS011;5814;41.936;25.556;2024-02-21T06:05:12;7.70;;;7.30;;
11514;SDS011;5814;41.936;25.556;2024-02-21T06:07:38;7.47;;;7.07;;
11514;SDS011;5814;41.936;25.556;2024-02-21T06:10:03;7.80;;;7.40;;
11514;SDS011;5814;41.936;25.556;2024-02-21T06:12:30;7.82;;;7.43;;
11514;SDS011;5814;41.936;25.556;2024-02-21T06:14:56;7.55;;;7.15;;
11514;SDS011;5814;41.936;25.556;2024-02-21T06:17:21;7.40;;;7.10;;
11514;SDS011;5814;41.936;25.556;2024-02-21T06:19:47;7.95;;;7.50;;
11514;SDS011;5814;41.936;25.556;2024-02-21T06:22:12;7.97;;;7.57;;
11514;SDS011;5814;41.936;25.556;2024-02-21T06:24:38;7.15;;;6.85;;
11514;SDS011;5814;41.936;25.556;2024-02-21T06:27:04;7.43;;;7.03;;
11514;SDS011;5814;41.936;25.556;2024-02-21T06:29:33;7.80;;;7.40;;
11514;SDS011;5814;41.936;25.556;2024-02-21T06:31:59;18.58;;;17.38;;
11514;SDS011;5814;41.936;25.556;2024-02-21T06:34:25;27.63;;;25.52;;
11514;SDS011;5814;41.936;25.556;2024-02-21T06:36:50;30.20;;;27.88;;
11514;SDS011;5814;41.936;25.556;2024-02-21T06:39:16;29.20;;;26.90;;
11514;SDS011;5814;41.936;25.556;2024-02-21T06:41:42;30.67;;;28.17;;
11514;SDS011;5814;41.936;25.556;2024-02-21T06:44:07;33.20;;;30.40;;
11514;SDS011;5814;41.936;25.556;2024-02-21T06:46:33;36.13;;;32.95;;
11514;SDS011;5814;41.936;25.556;2024-02-21T06:49:00;33.35;;;30.35;;
11514;SDS011;5814;41.936;25.556;2024-02-21T06:51:26;31.27;;;28.65;;
11514;SDS011;5814;41.936;25.556;2024-02-21T06:53:52;28.90;;;26.50;;
11514;SDS011;5814;41.936;25.556;2024-02-21T06:56:18;27.30;;;25.20;;
11514;SDS011;5814;41.936;25.556;2024-02-21T06:58:44;26.60;;;24.55;;
11514;SDS011;5814;41.936;25.556;2024-02-21T07:01:10;26.88;;;24.77;;
11514;SDS011;5814;41.936;25.556;2024-02-21T07:03:36;25.50;;;23.70;;
11514;SDS011;5814;41.936;25.556;2024-02-21T07:06:01;24.83;;;22.92;;
11514;SDS011;5814;41.936;25.556;2024-02-21T07:08:27;24.20;;;22.52;;
11514;SDS011;5814;41.936;25.556;2024-02-21T07:10:53;24.13;;;22.27;;
11514;SDS011;5814;41.936;25.556;2024-02-21T07:13:18;23.33;;;21.63;;
11514;SDS011;5814;41.936;25.556;2024-02-21T07:15:44;24.08;;;22.35;;
11514;SDS011;5814;41.936;25.556;2024-02-21T07:18:10;23.17;;;21.58;;
11514;SDS011;5814;41.936;25.556;2024-02-21T07:20:35;24.17;;;22.33;;
11514;SDS011;5814;41.936;25.556;2024-02-21T07:23:03;22.08;;;20.58;;
11514;SDS011;5814;41.936;25.556;2024-02-21T07:25:29;23.02;;;21.30;;
11514;SDS011;5814;41.936;25.556;2024-02-21T07:27:54;22.63;;;21.02;;
11514;SDS011;5814;41.936;25.556;2024-02-21T07:30:20;22.50;;;21.00;;
11514;SDS011;5814;41.936;25.556;2024-02-21T07:32:48;22.23;;;20.60;;
11514;SDS011;5814;41.936;25.556;2024-02-21T07:35:15;21.85;;;20.38;;
11514;SDS011;5814;41.936;25.556;2024-02-21T07:37:40;21.27;;;19.65;;
11514;SDS011;5814;41.936;25.556;2024-02-21T07:40:06;22.42;;;20.77;;
11514;SDS011;5814;41.936;25.556;2024-02-21T07:42:37;21.23;;;19.83;;
11514;SDS011;5814;41.936;25.556;2024-02-21T07:45:02;20.83;;;19.40;;
11514;SDS011;5814;41.936;25.556;2024-02-21T07:47:28;20.45;;;19.13;;
11514;SDS011;5814;41.936;25.556;2024-02-21T07:49:54;20.48;;;19.17;;
11514;SDS011;5814;41.936;25.556;2024-02-21T07:52:19;20.50;;;19.08;;
11514;SDS011;5814;41.936;25.556;2024-02-21T07:54:45;21.05;;;19.65;;
11514;SDS011;5814;41.936;25.556;2024-02-21T07:57:10;21.00;;;19.55;;
11514;SDS011;5814;41.936;25.556;2024-02-21T07:59:36;19.67;;;18.38;;
11514;SDS011;5814;41.936;25.556;2024-02-21T08:02:01;19.55;;;18.25;;
11514;SDS011;5814;41.936;25.556;2024-02-21T08:04:27;19.67;;;18.38;;
11514;SDS011;5814;41.936;25.556;2024-02-21T08:06:53;19.65;;;18.38;;
11514;SDS011;5814;41.936;25.556;2024-02-21T08:09:26;19.98;;;18.60;;
11514;SDS011;5814;41.936;25.556;2024-02-21T08:11:53;19.83;;;18.55;;
11514;SDS011;5814;41.936;25.556;2024-02-21T08:14:19;19.55;;;18.35;;
11514;SDS011;5814;41.936;25.556;2024-02-21T08:16:45;19.08;;;17.88;;
11514;SDS011;5814;41.936;25.556;2024-02-21T08:19:10;19.35;;;18.05;;
11514;SDS011;5814;41.936;25.556;2024-02-21T08:21:36;19.75;;;18.35;;
11514;SDS011;5814;41.936;25.556;2024-02-21T08:24:01;18.92;;;17.73;;
11514;SDS011;5814;41.936;25.556;2024-02-21T08:26:27;18.75;;;17.55;;
11514;SDS011;5814;41.936;25.556;2024-02-21T08:28:55;19.70;;;18.40;;
11514;SDS011;5814;41.936;25.556;2024-02-21T08:31:23;18.27;;;17.08;;
11514;SDS011;5814;41.936;25.556;2024-02-21T08:33:53;18.77;;;17.58;;
11514;SDS011;5814;41.936;25.556;2024-02-21T08:36:19;18.65;;;17.55;;
11514;SDS011;5814;41.936;25.556;2024-02-21T08:38:45;18.00;;;16.90;;
11514;SDS011;5814;41.936;25.556;2024-02-21T08:41:10;18.13;;;16.95;;
11514;SDS011;5814;41.936;25.556;2024-02-21T08:43:36;18.55;;;17.20;;
11514;SDS011;5814;41.936;25.556;2024-02-21T08:46:02;18.38;;;17.08;;
11514;SDS011;5814;41.936;25.556;2024-02-21T08:48:27;18.02;;;16.88;;
11514;SDS011;5814;41.936;25.556;2024-02-21T08:50:53;18.00;;;16.90;;
11514;SDS011;5814;41.936;25.556;2024-02-21T08:53:19;17.30;;;16.30;;
11514;SDS011;5814;41.936;25.556;2024-02-21T08:55:45;17.40;;;16.40;;
11514;SDS011;5814;41.936;25.556;2024-02-21T08:58:11;16.98;;;15.98;;
11514;SDS011;5814;41.936;25.556;2024-02-21T09:00:36;17.05;;;15.95;;
11514;SDS011;5814;41.936;25.556;2024-02-21T09:03:02;16.75;;;15.55;;
11514;SDS011;5814;41.936;25.556;2024-02-21T09:05:28;16.77;;;15.77;;
11514;SDS011;5814;41.936;25.556;2024-02-21T09:07:53;16.83;;;15.82;;
11514;SDS011;5814;41.936;25.556;2024-02-21T09:10:19;16.55;;;15.45;;
11514;SDS011;5814;41.936;25.556;2024-02-21T09:12:45;16.20;;;15.20;;
11514;SDS011;5814;41.936;25.556;2024-02-21T09:15:11;15.75;;;14.85;;
11514;SDS011;5814;41.936;25.556;2024-02-21T09:17:36;16.15;;;15.23;;
11514;SDS011;5814;41.936;25.556;2024-02-21T09:20:02;15.90;;;14.90;;
11514;SDS011;5814;41.936;25.556;2024-02-21T09:22:28;16.13;;;15.13;;
11514;SDS011;5814;41.936;25.556;2024-02-21T09:24:54;16.60;;;15.60;;
11514;SDS011;5814;41.936;25.556;2024-02-21T09:27:20;15.98;;;14.98;;
11514;SDS011;5814;41.936;25.556;2024-02-21T09:29:45;15.75;;;14.75;;
11514;SDS011;5814;41.936;25.556;2024-02-21T09:32:11;15.27;;;14.30;;
11514;SDS011;5814;41.936;25.556;2024-02-21T09:34:37;15.13;;;14.23;;
11514;SDS011;5814;41.936;25.556;2024-02-21T09:37:03;15.20;;;14.30;;
11514;SDS011;5814;41.936;25.556;2024-02-21T09:39:28;14.98;;;14.10;;
11514;SDS011;5814;41.936;25.556;2024-02-21T09:41:57;14.90;;;14.00;;
11514;SDS011;5814;41.936;25.556;2024-02-21T09:44:24;14.82;;;13.93;;
11514;SDS011;5814;41.936;25.556;2024-02-21T09:49:31;14.07;;;13.27;;
11514;SDS011;5814;41.936;25.556;2024-02-21T09:52:00;14.85;;;13.95;;
11514;SDS011;5814;41.936;25.556;2024-02-21T09:54:28;14.35;;;13.48;;
11514;SDS011;5814;41.936;25.556;2024-02-21T09:56:56;14.55;;;13.75;;
11514;SDS011;5814;41.936;25.556;2024-02-21T09:59:21;14.18;;;13.38;;
11514;SDS011;5814;41.936;25.556;2024-02-21T10:01:49;14.18;;;13.35;;
11514;SDS011;5814;41.936;25.556;2024-02-21T10:04:16;13.65;;;12.88;;
11514;SDS011;5814;41.936;25.556;2024-02-21T10:06:41;14.00;;;13.10;;
11514;SDS011;5814;41.936;25.556;2024-02-21T10:09:07;14.13;;;13.32;;
11514;SDS011;5814;41.936;25.556;2024-02-21T10:11:33;13.93;;;13.13;;
11514;SDS011;5814;41.936;25.556;2024-02-21T10:14:06;13.90;;;13.10;;
11514;SDS011;5814;41.936;25.556;2024-02-21T10:16:32;13.55;;;12.65;;
11514;SDS011;5814;41.936;25.556;2024-02-21T10:18:59;13.52;;;12.73;;
11514;SDS011;5814;41.936;25.556;2024-02-21T10:21:24;12.93;;;12.13;;
11514;SDS011;5814;41.936;25.556;2024-02-21T10:23:50;14.07;;;12.77;;
11514;SDS011;5814;41.936;25.556;2024-02-21T10:26:17;13.25;;;12.48;;
11514;SDS011;5814;41.936;25.556;2024-02-21T10:28:43;13.80;;;13.00;;
11514;SDS011;5814;41.936;25.556;2024-02-21T10:31:23;14.35;;;13.18;;
11514;SDS011;5814;41.936;25.556;2024-02-21T10:33:58;13.02;;;12.32;;
11514;SDS011;5814;41.936;25.556;2024-02-21T10:36:30;12.25;;;11.55;;
11514;SDS011;5814;41.936;25.556;2024-02-21T10:38:56;12.90;;;12.10;;
11514;SDS011;5814;41.936;25.556;2024-02-21T11:50:37;15.25;;;14.00;;
11514;SDS011;5814;41.936;25.556;2024-02-21T11:53:05;13.35;;;12.57;;
11514;SDS011;5814;41.936;25.556;2024-02-21T11:55:30;14.52;;;13.60;;
11514;SDS011;5814;41.936;25.556;2024-02-21T11:57:56;12.25;;;11.50;;
11514;SDS011;5814;41.936;25.556;2024-02-21T12:00:22;11.23;;;10.63;;
11514;SDS011;5814;41.936;25.556;2024-02-21T12:02:49;12.40;;;11.70;;
11514;SDS011;5814;41.936;25.556;2024-02-21T12:05:15;12.10;;;11.38;;
11514;SDS011;5814;41.936;25.556;2024-02-21T12:07:41;11.02;;;10.43;;
11514;SDS011;5814;41.936;25.556;2024-02-21T12:10:08;12.40;;;11.70;;
11514;SDS011;5814;41.936;25.556;2024-02-21T12:12:35;12.80;;;11.93;;
11514;SDS011;5814;41.936;25.556;2024-02-21T12:15:03;11.15;;;10.55;;
11514;SDS011;5814;41.936;25.556;2024-02-21T12:17:30;13.32;;;12.43;;
11514;SDS011;5814;41.936;25.556;2024-02-21T12:19:56;12.38;;;11.68;;
11514;SDS011;5814;41.936;25.556;2024-02-21T12:22:22;11.20;;;10.52;;
11514;SDS011;5814;41.936;25.556;2024-02-21T12:24:47;10.73;;;10.02;;
11514;SDS011;5814;41.936;25.556;2024-02-21T12:27:13;11.30;;;10.60;;
11514;SDS011;5814;41.936;25.556;2024-02-21T12:29:38;11.15;;;10.45;;
11514;SDS011;5814;41.936;25.556;2024-02-21T12:32:04;11.13;;;10.23;;
11514;SDS011;5814;41.936;25.556;2024-02-21T12:34:30;9.93;;;9.32;;
11514;SDS011;5814;41.936;25.556;2024-02-21T12:36:58;10.80;;;10.10;;
11514;SDS011;5814;41.936;25.556;2024-02-21T12:39:24;11.63;;;10.95;;
11514;SDS011;5814;41.936;25.556;2024-02-21T12:41:49;11.35;;;10.65;;
11514;SDS011;5814;41.936;25.556;2024-02-21T12:44:15;10.63;;;10.02;;
11514;SDS011;5814;41.936;25.556;2024-02-21T12:46:42;11.48;;;10.88;;
11514;SDS011;5814;41.936;25.556;2024-02-21T12:49:07;11.50;;;10.82;;
11514;SDS011;5814;41.936;25.556;2024-02-21T12:51:34;10.80;;;10.20;;
11514;SDS011;5814;41.936;25.556;2024-02-21T12:54:00;10.55;;;9.95;;
11514;SDS011;5814;41.936;25.556;2024-02-21T12:56:26;12.77;;;11.88;;
11514;SDS011;5814;41.936;25.556;2024-02-21T12:58:57;12.68;;;11.98;;
11514;SDS011;5814;41.936;25.556;2024-02-21T13:01:23;12.45;;;11.57;;
11514;SDS011;5814;41.936;25.556;2024-02-21T13:03:48;11.38;;;10.68;;
11514;SDS011;5814;41.936;25.556;2024-02-21T13:06:14;11.95;;;11.25;;
11514;SDS011;5814;41.936;25.556;2024-02-21T13:08:39;12.48;;;11.55;;
11514;SDS011;5814;41.936;25.556;2024-02-21T13:11:06;12.25;;;11.55;;
11514;SDS011;5814;41.936;25.556;2024-02-21T13:13:32;10.82;;;10.13;;
11514;SDS011;5814;41.936;25.556;2024-02-21T13:15:58;11.15;;;10.55;;
11514;SDS011;5814;41.936;25.556;2024-02-21T13:18:23;11.90;;;11.20;;
11514;SDS011;5814;41.936;25.556;2024-02-21T13:20:49;14.35;;;13.45;;
11514;SDS011;5814;41.936;25.556;2024-02-21T13:23:14;11.02;;;10.32;;
11514;SDS011;5814;41.936;25.556;2024-02-21T13:25:40;11.88;;;11.27;;
11514;SDS011;5814;41.936;25.556;2024-02-21T13:28:06;12.38;;;11.63;;
11514;SDS011;5814;41.936;25.556;2024-02-21T13:30:32;13.23;;;12.35;;
11514;SDS011;5814;41.936;25.556;2024-02-21T13:32:57;12.77;;;11.77;;
11514;SDS011;5814;41.936;25.556;2024-02-21T13:35:23;12.02;;;11.38;;
11514;SDS011;5814;41.936;25.556;2024-02-21T13:37:48;11.38;;;10.75;;
11514;SDS011;5814;41.936;25.556;2024-02-21T13:40:15;9.70;;;9.20;;
11514;SDS011;5814;41.936;25.556;2024-02-21T13:42:41;10.30;;;9.60;;
11514;SDS011;5814;41.936;25.556;2024-02-21T13:45:08;10.90;;;10.13;;
11514;SDS011;5814;41.936;25.556;2024-02-21T13:47:34;11.13;;;10.40;;
11514;SDS011;5814;41.936;25.556;2024-02-21T13:50:02;10.80;;;10.18;;
11514;SDS011;5814;41.936;25.556;2024-02-21T13:52:29;10.20;;;9.60;;
11514;SDS011;5814;41.936;25.556;2024-02-21T13:54:56;11.20;;;10.50;;
11514;SDS011;5814;41.936;25.556;2024-02-21T13:57:22;10.77;;;10.18;;
11514;SDS011;5814;41.936;25.556;2024-02-21T13:59:47;11.25;;;10.48;;
11514;SDS011;5814;41.936;25.556;2024-02-21T14:02:13;10.77;;;10.18;;
11514;SDS011;5814;41.936;25.556;2024-02-21T14:04:39;10.68;;;10.07;;
11514;SDS011;5814;41.936;25.556;2024-02-21T14:07:04;10.30;;;9.80;;
11514;SDS011;5814;41.936;25.556;2024-02-21T14:09:30;11.82;;;11.20;;
11514;SDS011;5814;41.936;25.556;2024-02-21T14:11:56;12.10;;;11.38;;
11514;SDS011;5814;41.936;25.556;2024-02-21T14:14:21;10.23;;;9.63;;
11514;SDS011;5814;41.936;25.556;2024-02-21T14:16:47;11.93;;;11.20;;
11514;SDS011;5814;41.936;25.556;2024-02-21T14:19:15;12.05;;;11.35;;
11514;SDS011;5814;41.936;25.556;2024-02-21T14:21:41;11.43;;;10.82;;
11514;SDS011;5814;41.936;25.556;2024-02-21T14:24:06;13.05;;;12.18;;
11514;SDS011;5814;41.936;25.556;2024-02-21T14:26:32;10.45;;;9.95;;
11514;SDS011;5814;41.936;25.556;2024-02-21T14:28:58;11.57;;;10.98;;
11514;SDS011;5814;41.936;25.556;2024-02-21T14:31:25;11.80;;;11.00;;
11514;SDS011;5814;41.936;25.556;2024-02-21T14:33:51;13.40;;;12.45;;
11514;SDS011;5814;41.936;25.556;2024-02-21T14:36:17;10.98;;;10.38;;
11514;SDS011;5814;41.936;25.556;2024-02-21T14:38:43;11.45;;;10.68;;
11514;SDS011;5814;41.936;25.556;2024-02-21T14:41:09;12.38;;;11.57;;
11514;SDS011;5814;41.936;25.556;2024-02-21T14:43:38;11.95;;;11.25;;
11514;SDS011;5814;41.936;25.556;2024-02-21T14:46:04;12.77;;;11.98;;
11514;SDS011;5814;41.936;25.556;2024-02-21T14:48:31;11.70;;;10.95;;
11514;SDS011;5814;41.936;25.556;2024-02-21T14:50:57;11.10;;;10.50;;
11514;SDS011;5814;41.936;25.556;2024-02-21T14:53:23;13.95;;;12.95;;
11514;SDS011;5814;41.936;25.556;2024-02-21T14:55:49;14.10;;;13.18;;
11514;SDS011;5814;41.936;25.556;2024-02-21T14:58:15;15.25;;;14.05;;
11514;SDS011;5814;41.936;25.556;2024-02-21T15:00:43;14.65;;;13.75;;
11514;SDS011;5814;41.936;25.556;2024-02-21T15:03:09;17.75;;;16.23;;
11514;SDS011;5814;41.936;25.556;2024-02-21T15:05:35;15.82;;;14.55;;
11514;SDS011;5814;41.936;25.556;2024-02-21T15:08:03;17.17;;;15.77;;
11514;SDS011;5814;41.936;25.556;2024-02-21T15:10:28;15.13;;;13.93;;
11514;SDS011;5814;41.936;25.556;2024-02-21T15:12:54;13.65;;;12.68;;
11514;SDS011;5814;41.936;25.556;2024-02-21T15:15:21;13.25;;;12.38;;
11514;SDS011;5814;41.936;25.556;2024-02-21T15:17:46;12.65;;;11.82;;
11514;SDS011;5814;41.936;25.556;2024-02-21T15:20:12;12.65;;;11.90;;
11514;SDS011;5814;41.936;25.556;2024-02-21T15:22:38;13.05;;;12.15;;
11514;SDS011;5814;41.936;25.556;2024-02-21T15:25:03;11.43;;;10.73;;
11514;SDS011;5814;41.936;25.556;2024-02-21T15:27:32;11.48;;;10.77;;
11514;SDS011;5814;41.936;25.556;2024-02-21T15:29:58;11.77;;;11.07;;
11514;SDS011;5814;41.936;25.556;2024-02-21T15:32:25;12.77;;;11.85;;
11514;SDS011;5814;41.936;25.556;2024-02-21T15:34:50;12.05;;;11.25;;
11514;SDS011;5814;41.936;25.556;2024-02-21T15:37:16;15.88;;;14.43;;
11514;SDS011;5814;41.936;25.556;2024-02-21T15:39:41;21.58;;;19.63;;